クアラルンプール の空港の天気 - METARとTAF

クアラルンプール国際空港 ( WMKK / KUL ) - マレーシア スランゴール州セパン
飛行場実況気象(Metar)
観測時間10/31 06:00 MYT (10/30 22:00 UTC)
風向・風速静穏 0m/s
視程9000m
天気現象
少しの雲 雲底高度 180m
少しの雲 雲底高度 520m
気温24℃
湿度94%
気圧1010hPa
METARWMKK 302200Z 00000KT 9000 FEW006 FEW017CB 24/23 Q1010 NOSIG
過去の天気等 Google飛行場航空写真 Wunderground天気予報

過去48時間のMETAR

飛行場予報(TAF)
発表時間: 10/31 01:00 MYT (10/30 17:00 UTC)
予報対象時間: 31日2時 MYT ~ 1日8時 MYT
風向・風速南南西 3m/s
視程10km以上
少しの雲 雲底高度 910m
31日2時 MYT ~ 31日7時 MYT に一時的に
視程4000m
天気現象雷雨
少しの雲 雲底高度 240m
少しの積乱雲 雲底高度 520m
全天の4割程度の雲 雲底高度 580m
31日15時 MYT ~ 31日19時 MYT に 確率 30% で一時的に
視程4000m
天気現象雷雨
少しの積乱雲 雲底高度 520m
全天の4割程度の雲 雲底高度 610m
TAF WMKK 301700Z 3018/0100 21005KT 9999 FEW030
TEMPO 3018/3023 4000 TSRA FEW008 FEW017CB SCT019
PROB30 TEMPO 3107/3111 4000 TSRA FEW017CB SCT020